createdAt,value
2023-05-11T00:00:10.206Z,24.06
2023-05-11T00:01:10.160Z,24.12
2023-05-11T00:02:10.201Z,24.17
2023-05-11T00:03:10.430Z,24.17
2023-05-11T00:04:10.128Z,24.12
2023-05-11T00:05:10.105Z,24.12
2023-05-11T00:06:10.083Z,24.06
2023-05-11T00:07:10.131Z,24.12
2023-05-11T00:08:10.062Z,24.12
2023-05-11T00:09:10.045Z,24.17
2023-05-11T00:10:10.450Z,24.12
2023-05-11T00:11:10.035Z,24.12
2023-05-11T00:12:10.023Z,24.12
2023-05-11T00:13:10.342Z,24.12
2023-05-11T00:14:09.993Z,24.12
2023-05-11T00:15:10.368Z,24.12
2023-05-11T00:16:09.994Z,24.12
2023-05-11T00:17:09.947Z,24.06
2023-05-11T00:18:09.939Z,24.12
2023-05-11T00:19:10.267Z,24.17
2023-05-11T00:20:09.894Z,24.12
2023-05-11T00:21:09.886Z,24.28
2023-05-11T00:22:09.870Z,24.33
2023-05-11T00:23:09.861Z,24.22
2023-05-11T00:24:09.847Z,24.12
2023-05-11T00:25:09.839Z,24.12
2023-05-11T00:26:09.827Z,24.17
2023-05-11T00:27:09.801Z,24.12
2023-05-11T00:28:09.790Z,24.12
2023-05-11T00:29:09.772Z,24.12
2023-05-11T00:30:09.780Z,24.12
2023-05-11T00:31:09.765Z,24.12
2023-05-11T00:32:09.733Z,23.90
2023-05-11T00:33:09.719Z,24.06
2023-05-11T00:34:09.706Z,24.12
2023-05-11T00:35:09.687Z,24.12
2023-05-11T00:36:09.675Z,24.06
2023-05-11T00:37:09.669Z,24.06
2023-05-11T00:38:09.655Z,24.28
2023-05-11T00:39:09.645Z,24.17
2023-05-11T00:40:09.616Z,24.06
2023-05-11T00:41:09.633Z,24.17
2023-05-11T00:42:09.806Z,24.12
2023-05-11T00:43:09.575Z,24.12
2023-05-11T00:44:09.562Z,24.28
2023-05-11T00:45:09.559Z,24.12
2023-05-11T00:46:09.563Z,24.12
2023-05-11T00:47:09.617Z,24.06
2023-05-11T00:48:09.521Z,24.01
2023-05-11T00:49:09.497Z,24.12
2023-05-11T00:50:09.487Z,24.12
2023-05-11T00:51:09.463Z,24.06
2023-05-11T00:52:09.449Z,24.06
2023-05-11T00:53:09.445Z,24.12
2023-05-11T00:54:09.436Z,24.12
2023-05-11T00:55:09.420Z,24.06
2023-05-11T00:56:09.408Z,24.17
2023-05-11T00:57:09.393Z,24.06
2023-05-11T00:58:09.387Z,24.12
2023-05-11T00:59:09.375Z,24.17
2023-05-11T01:00:09.354Z,24.12
2023-05-11T01:01:11.184Z,24.12
2023-05-11T01:02:09.329Z,24.12
2023-05-11T01:03:09.357Z,24.01
2023-05-11T01:04:09.288Z,24.17
2023-05-11T01:05:09.277Z,24.17
2023-05-11T01:06:09.262Z,24.22
2023-05-11T01:07:09.249Z,24.22
2023-05-11T01:08:09.243Z,24.12
2023-05-11T01:09:09.227Z,24.17
2023-05-11T01:10:09.213Z,24.12
2023-05-11T01:11:09.262Z,24.06
2023-05-11T01:12:09.190Z,24.17
2023-05-11T01:13:09.178Z,24.12
2023-05-11T01:14:09.163Z,24.28
2023-05-11T01:15:09.151Z,24.12
2023-05-11T01:16:09.191Z,24.06
2023-05-11T01:17:09.141Z,24.28
2023-05-11T01:18:09.150Z,24.01
2023-05-11T01:19:09.262Z,24.06
2023-05-11T01:20:09.084Z,24.17
2023-05-11T01:21:09.083Z,23.79
2023-05-11T01:22:09.064Z,24.12
2023-05-11T01:23:09.039Z,24.12
2023-05-11T01:24:09.023Z,23.96
2023-05-11T01:25:09.012Z,24.12
2023-05-11T01:26:09.007Z,24.12
2023-05-11T01:27:09.181Z,24.06
2023-05-11T01:28:08.961Z,24.12
2023-05-11T01:29:08.962Z,24.12
2023-05-11T01:30:08.945Z,24.06
2023-05-11T01:31:08.937Z,24.06
2023-05-11T01:32:09.004Z,24.12
2023-05-11T01:33:08.970Z,24.12
2023-05-11T01:34:09.138Z,24.06
2023-05-11T01:35:08.879Z,24.06
2023-05-11T01:36:08.862Z,24.12
2023-05-11T01:37:08.845Z,24.06
2023-05-11T01:38:08.835Z,24.06
2023-05-11T01:39:08.826Z,24.06
2023-05-11T01:40:08.809Z,24.12
2023-05-11T01:41:08.786Z,24.12
2023-05-11T01:42:09.073Z,24.17
2023-05-11T01:43:08.768Z,24.17
2023-05-11T01:44:08.750Z,24.06
2023-05-11T01:45:08.738Z,24.17
2023-05-11T01:46:08.755Z,24.12
2023-05-11T01:47:08.706Z,24.12
2023-05-11T01:48:08.736Z,24.06
2023-05-11T01:49:08.705Z,24.06
2023-05-11T01:50:08.667Z,24.12
2023-05-11T01:51:08.652Z,24.06
2023-05-11T01:52:08.652Z,24.12
2023-05-11T01:53:08.627Z,23.69
2023-05-11T01:54:08.609Z,24.06
2023-05-11T01:55:08.598Z,24.12
2023-05-11T01:56:08.583Z,24.17
2023-05-11T01:57:08.574Z,24.12
2023-05-11T01:58:08.578Z,24.22
2023-05-11T01:59:08.545Z,24.01
2023-05-11T02:00:08.551Z,24.17
2023-05-11T02:01:08.565Z,24.12
2023-05-11T02:02:08.500Z,24.06
2023-05-11T02:03:08.520Z,24.06
2023-05-11T02:04:08.469Z,24.17
2023-05-11T02:05:08.476Z,24.12
2023-05-11T02:06:08.438Z,24.06
2023-05-11T02:07:08.430Z,24.12
2023-05-11T02:08:08.449Z,24.12
2023-05-11T02:09:08.405Z,24.12
2023-05-11T02:10:08.387Z,24.12
2023-05-11T02:11:08.392Z,24.28
2023-05-11T02:12:08.362Z,24.28
2023-05-11T02:13:08.355Z,24.22
2023-05-11T02:14:08.343Z,24.06
2023-05-11T02:15:08.316Z,24.12
2023-05-11T02:16:08.345Z,24.12
2023-05-11T02:17:08.291Z,24.12
2023-05-11T02:18:08.363Z,23.90
2023-05-11T02:19:08.425Z,24.12
2023-05-11T02:20:08.263Z,24.12
2023-05-11T02:21:08.261Z,24.06
2023-05-11T02:22:08.231Z,24.06
2023-05-11T02:23:08.209Z,24.12
2023-05-11T02:24:08.298Z,24.01
2023-05-11T02:25:08.184Z,24.06
2023-05-11T02:26:08.170Z,24.06
2023-05-11T02:27:08.362Z,24.06
2023-05-11T02:28:08.169Z,24.06
2023-05-11T02:29:08.139Z,24.06
2023-05-11T02:30:08.118Z,24.17
2023-05-11T02:31:08.146Z,24.28
2023-05-11T02:32:08.137Z,24.06
2023-05-11T02:33:08.188Z,24.12
2023-05-11T02:34:08.118Z,24.22
2023-05-11T02:35:08.081Z,24.28
2023-05-11T02:36:08.043Z,24.28
2023-05-11T02:37:08.040Z,23.90
2023-05-11T02:38:08.013Z,24.06
2023-05-11T02:39:07.998Z,23.96
2023-05-11T02:40:08.079Z,24.06
2023-05-11T02:41:07.970Z,24.12
2023-05-11T02:42:07.963Z,24.12
2023-05-11T02:43:07.960Z,24.22
2023-05-11T02:44:07.923Z,24.12
2023-05-11T02:45:08.271Z,24.01
2023-05-11T02:46:08.074Z,24.12
2023-05-11T02:47:08.140Z,24.06
2023-05-11T02:48:07.906Z,24.06
2023-05-11T02:49:07.857Z,24.55
2023-05-11T02:50:08.158Z,24.06
2023-05-11T02:51:07.828Z,24.06
2023-05-11T02:52:07.817Z,24.12
2023-05-11T02:53:07.844Z,24.12
2023-05-11T02:54:08.098Z,24.12
2023-05-11T03:00:42.416Z,24.12
2023-05-11T03:01:42.556Z,24.17
2023-05-11T03:02:42.432Z,24.01
2023-05-11T03:03:42.514Z,24.12
2023-05-11T03:04:42.301Z,24.12
2023-05-11T03:05:42.292Z,24.12
2023-05-11T03:06:42.280Z,24.12
2023-05-11T03:07:42.259Z,24.12
2023-05-11T03:08:42.254Z,24.17
2023-05-11T03:09:42.237Z,24.44
2023-05-11T03:10:42.228Z,24.22
2023-05-11T03:11:42.201Z,24.12
2023-05-11T03:12:42.176Z,24.06
2023-05-11T03:13:42.173Z,24.12
2023-05-11T03:14:42.157Z,24.12
2023-05-11T03:15:42.145Z,24.22
2023-05-11T03:16:42.237Z,24.12
2023-05-11T03:17:42.148Z,24.12
2023-05-11T03:18:42.136Z,24.22
2023-05-11T03:19:42.105Z,24.12
2023-05-11T03:20:42.078Z,23.74
2023-05-11T03:21:42.054Z,24.01
2023-05-11T03:22:42.095Z,24.12
2023-05-11T03:23:42.067Z,24.17
2023-05-11T03:24:42.079Z,24.06
2023-05-11T03:25:42.003Z,24.17
2023-05-11T03:26:42.002Z,24.12
2023-05-11T03:27:42.001Z,24.06
2023-05-11T03:28:41.975Z,24.06
2023-05-11T03:29:41.952Z,24.12
2023-05-11T03:30:41.937Z,24.12
2023-05-11T03:31:42.006Z,24.12
2023-05-11T03:32:42.008Z,24.12
2023-05-11T03:33:41.900Z,24.22
2023-05-11T03:34:41.894Z,24.22
2023-05-11T03:35:41.885Z,24.12
2023-05-11T03:36:41.911Z,24.12
2023-05-11T03:37:41.851Z,24.12
2023-05-11T03:38:41.825Z,24.06
2023-05-11T03:39:41.825Z,24.06
2023-05-11T03:40:41.826Z,24.12
2023-05-11T03:41:41.792Z,24.06
2023-05-11T03:42:41.773Z,24.17
2023-05-11T03:43:41.764Z,24.22
2023-05-11T03:44:41.759Z,24.01
2023-05-11T03:45:41.766Z,24.12
2023-05-11T03:46:41.731Z,24.01
2023-05-11T03:47:41.764Z,24.22
2023-05-11T03:48:41.699Z,24.12
2023-05-11T03:49:41.683Z,24.12
2023-05-11T03:50:41.670Z,24.12
2023-05-11T03:51:41.656Z,24.22
2023-05-11T03:52:41.648Z,24.22
2023-05-11T03:53:41.625Z,24.33
2023-05-11T03:54:41.608Z,24.22
2023-05-11T03:55:41.600Z,24.22
2023-05-11T03:56:41.617Z,24.17
2023-05-11T03:57:41.568Z,24.12
2023-05-11T03:58:41.550Z,24.12
2023-05-11T03:59:41.545Z,24.22
2023-05-11T04:00:41.526Z,24.06
2023-05-11T04:01:41.518Z,24.12
2023-05-11T04:02:41.577Z,24.06
2023-05-11T04:03:41.571Z,24.12
2023-05-11T04:04:41.506Z,24.06
2023-05-11T04:05:41.497Z,23.90
2023-05-11T04:06:41.461Z,24.01
2023-05-11T04:07:41.442Z,24.12
2023-05-11T04:08:41.419Z,24.12
2023-05-11T04:09:41.411Z,24.06
2023-05-11T04:10:41.399Z,24.17
2023-05-11T04:11:41.383Z,24.17
2023-05-11T04:12:41.400Z,24.22
2023-05-11T04:13:41.343Z,24.12
2023-05-11T04:14:41.340Z,24.12
2023-05-11T04:15:41.365Z,24.17
2023-05-11T04:16:41.480Z,24.12
2023-05-11T04:17:41.358Z,24.06
2023-05-11T04:18:41.339Z,24.06
2023-05-11T04:19:41.266Z,24.22
2023-05-11T04:20:41.254Z,24.22
2023-05-11T04:21:41.245Z,24.06
2023-05-11T04:22:41.239Z,24.33
2023-05-11T04:23:41.206Z,24.12
2023-05-11T04:24:41.204Z,24.01
2023-05-11T04:25:41.189Z,24.17
2023-05-11T04:26:41.181Z,24.06
2023-05-11T04:27:41.168Z,24.17
2023-05-11T04:28:41.170Z,24.12
2023-05-11T04:29:41.145Z,24.22
2023-05-11T04:30:41.118Z,24.06
2023-05-11T04:31:41.132Z,24.12
2023-05-11T04:32:41.121Z,24.06
2023-05-11T04:33:41.075Z,24.22
2023-05-11T04:34:41.070Z,24.06
2023-05-11T04:35:41.054Z,24.06
2023-05-11T04:36:41.037Z,24.12
2023-05-11T04:37:41.023Z,24.28
2023-05-11T04:38:41.013Z,24.12
2023-05-11T04:39:41.001Z,24.17
2023-05-11T04:40:40.987Z,24.12
2023-05-11T04:41:40.974Z,24.12
2023-05-11T04:42:40.959Z,24.06
2023-05-11T04:43:40.941Z,24.28
2023-05-11T04:44:40.967Z,24.12
2023-05-11T04:45:40.916Z,24.38
2023-05-11T04:46:40.940Z,23.69
2023-05-11T04:47:40.960Z,24.12
2023-05-11T04:48:40.866Z,24.12
2023-05-11T04:49:40.861Z,24.12
2023-05-11T04:50:40.846Z,24.22
2023-05-11T04:51:40.833Z,24.06
2023-05-11T04:52:40.830Z,24.17
2023-05-11T04:53:42.165Z,23.85
2023-05-11T04:54:40.805Z,24.12
2023-05-11T04:55:40.794Z,24.22
2023-05-11T04:56:40.778Z,24.06
2023-05-11T04:57:40.762Z,24.28
2023-05-11T04:58:40.741Z,24.12
2023-05-11T04:59:40.825Z,23.96
2023-05-11T05:00:40.823Z,24.12
2023-05-11T05:01:41.114Z,24.12
2023-05-11T05:02:40.814Z,24.22
2023-05-11T05:03:40.702Z,24.12
2023-05-11T05:04:40.657Z,24.12
2023-05-11T05:05:40.882Z,24.17
2023-05-11T05:06:40.630Z,24.22
2023-05-11T05:07:40.628Z,24.22
2023-05-11T05:08:40.606Z,24.06
2023-05-11T05:09:41.928Z,24.06
2023-05-11T05:10:40.583Z,24.06
2023-05-11T05:11:40.558Z,24.06
2023-05-11T05:12:40.549Z,24.12
2023-05-11T05:13:40.544Z,24.12
2023-05-11T05:14:40.570Z,24.01
2023-05-11T05:15:40.508Z,24.06
2023-05-11T05:16:40.609Z,24.06
2023-05-11T05:17:40.703Z,24.12
2023-05-11T05:18:40.544Z,24.12
2023-05-11T05:19:40.454Z,24.01
2023-05-11T05:20:40.441Z,23.90
2023-05-11T05:21:40.594Z,24.22
2023-05-11T05:22:40.417Z,24.01
2023-05-11T05:23:40.652Z,23.74
2023-05-11T05:24:40.534Z,24.12
2023-05-11T05:25:40.375Z,24.12
2023-05-11T05:26:40.363Z,24.12
2023-05-11T05:27:40.593Z,24.12
2023-05-11T05:28:40.333Z,24.12
2023-05-11T05:29:40.334Z,24.06
2023-05-11T05:30:40.592Z,24.01
2023-05-11T05:31:40.289Z,24.12
2023-05-11T05:32:40.336Z,24.22
2023-05-11T05:33:40.260Z,24.71
2023-05-11T05:34:40.245Z,24.92
2023-05-11T05:35:40.234Z,25.08
2023-05-11T05:36:40.227Z,25.51
2023-05-11T05:37:40.200Z,25.46
2023-05-11T05:38:40.193Z,26.05
2023-05-11T05:39:40.177Z,26.21
2023-05-11T05:40:40.159Z,26.00
2023-05-11T05:41:40.150Z,25.89
2023-05-11T05:42:40.145Z,26.05
2023-05-11T05:43:40.127Z,26.05
2023-05-11T05:44:40.223Z,26.05
2023-05-11T05:45:40.100Z,26.05
2023-05-11T05:46:40.136Z,26.05
2023-05-11T05:47:40.171Z,26.10
2023-05-11T05:48:40.076Z,26.48
2023-05-11T05:49:40.038Z,26.16
2023-05-11T05:50:40.033Z,26.37
2023-05-11T05:51:40.017Z,26.05
2023-05-11T05:52:40.006Z,26.00
2023-05-11T05:53:39.990Z,26.43
2023-05-11T05:54:39.974Z,26.43
2023-05-11T05:55:39.961Z,26.43
2023-05-11T05:56:39.945Z,26.43
2023-05-11T05:57:39.935Z,26.69
2023-05-11T05:58:39.918Z,26.48
2023-05-11T05:59:39.901Z,26.05
2023-05-11T06:00:39.888Z,26.43
2023-05-11T06:01:39.880Z,26.32
2023-05-11T06:02:40.029Z,26.21
2023-05-11T06:03:40.072Z,26.05
2023-05-11T06:04:39.937Z,26.37
2023-05-11T06:05:39.833Z,26.48
2023-05-11T06:06:39.812Z,26.05
2023-05-11T06:07:39.790Z,26.10
2023-05-11T06:08:39.798Z,26.05
2023-05-11T06:09:39.768Z,26.16
2023-05-11T06:10:39.836Z,26.16
2023-05-11T06:11:39.745Z,26.37
2023-05-11T06:12:39.727Z,26.26
2023-05-11T06:13:39.757Z,26.05
2023-05-11T06:14:39.742Z,26.05
2023-05-11T06:15:43.065Z,26.37
2023-05-11T06:16:39.757Z,26.00
2023-05-11T06:17:39.691Z,26.05
2023-05-11T06:18:39.651Z,25.73
2023-05-11T06:19:39.626Z,26.53
2023-05-11T06:20:39.639Z,26.16
2023-05-11T06:21:39.597Z,26.00
2023-05-11T06:22:39.585Z,25.94
2023-05-11T06:23:39.578Z,26.05
2023-05-11T06:24:39.566Z,26.00
2023-05-11T06:25:39.551Z,26.00
2023-05-11T06:26:39.538Z,26.00
2023-05-11T06:27:39.519Z,26.05
2023-05-11T06:28:39.518Z,26.05
2023-05-11T06:29:39.498Z,26.00
2023-05-11T06:30:39.479Z,26.05
2023-05-11T06:31:39.536Z,26.00
2023-05-11T06:32:39.534Z,26.05
2023-05-11T06:33:39.451Z,26.05
2023-05-11T06:34:39.484Z,26.05
2023-05-11T06:35:39.418Z,26.00
2023-05-11T06:36:39.492Z,26.16
2023-05-11T06:37:39.405Z,26.05
2023-05-11T06:38:39.380Z,26.16
2023-05-11T06:39:39.367Z,26.00
2023-05-11T06:40:39.349Z,26.10
2023-05-11T06:41:39.335Z,26.21
2023-05-11T06:42:39.324Z,26.10
2023-05-11T06:43:39.306Z,26.00
2023-05-11T06:44:39.355Z,26.05
2023-05-11T06:45:39.352Z,26.32
2023-05-11T06:46:39.273Z,26.05
2023-05-11T06:47:39.276Z,26.10
2023-05-11T06:48:39.254Z,26.05
2023-05-11T06:49:39.238Z,25.94
2023-05-11T06:50:39.215Z,26.32
2023-05-11T06:51:39.203Z,26.05
2023-05-11T06:52:39.244Z,26.05
2023-05-11T06:53:39.189Z,26.05
2023-05-11T06:54:39.158Z,26.10
2023-05-11T06:55:39.148Z,26.05
2023-05-11T06:56:39.136Z,26.05
2023-05-11T06:57:39.138Z,26.00
2023-05-11T06:58:39.112Z,25.94
2023-05-11T06:59:39.100Z,26.10
2023-05-11T07:00:39.083Z,26.16
2023-05-11T07:01:39.131Z,26.10
2023-05-11T07:02:39.087Z,26.05
2023-05-11T07:03:39.032Z,26.10
2023-05-11T07:04:39.114Z,26.10
2023-05-11T07:05:39.013Z,26.00
2023-05-11T07:06:38.995Z,26.10
2023-05-11T07:07:39.019Z,26.10
2023-05-11T07:08:38.992Z,26.00
2023-05-11T07:09:40.038Z,26.05
2023-05-11T07:10:38.945Z,25.46
2023-05-11T07:11:38.929Z,26.10
2023-05-11T07:12:38.942Z,26.10
2023-05-11T07:13:38.900Z,26.16
2023-05-11T07:14:38.892Z,26.00
2023-05-11T07:15:38.880Z,26.05
2023-05-11T07:16:38.919Z,26.05
2023-05-11T07:17:38.876Z,26.21
2023-05-11T07:18:38.877Z,26.00
2023-05-11T07:19:38.812Z,26.10
2023-05-11T07:20:38.802Z,26.05
2023-05-11T07:21:38.786Z,26.21
2023-05-11T07:22:38.774Z,26.16
2023-05-11T07:23:38.765Z,26.05
2023-05-11T07:24:38.768Z,26.05
2023-05-11T07:25:38.729Z,26.10
2023-05-11T07:26:38.715Z,26.05
2023-05-11T07:27:38.700Z,26.05
2023-05-11T07:28:38.689Z,26.10
2023-05-11T07:29:38.667Z,26.10
2023-05-11T07:30:38.661Z,25.46
2023-05-11T07:31:38.667Z,26.05
2023-05-11T07:32:38.749Z,25.46
2023-05-11T07:33:38.649Z,26.37
2023-05-11T07:34:38.612Z,25.46
2023-05-11T07:35:38.591Z,26.05
2023-05-11T07:36:38.579Z,25.94
2023-05-11T07:37:38.565Z,25.57
2023-05-11T07:38:38.560Z,26.05
2023-05-11T07:39:38.549Z,25.94
2023-05-11T07:40:38.574Z,25.62
2023-05-11T07:41:38.505Z,25.51
2023-05-11T07:42:38.487Z,25.46
2023-05-11T07:43:38.477Z,26.16
2023-05-11T07:44:38.467Z,25.94
2023-05-11T07:45:38.452Z,26.05
2023-05-11T07:46:38.556Z,25.51
2023-05-11T07:47:38.510Z,25.46
2023-05-11T07:48:38.424Z,25.46
2023-05-11T07:49:43.380Z,26.10
2023-05-11T07:50:38.400Z,26.05
2023-05-11T07:51:38.374Z,25.67
2023-05-11T07:52:38.361Z,26.48
2023-05-11T07:53:38.335Z,25.57
2023-05-11T07:54:38.326Z,25.51
2023-05-11T07:55:38.330Z,25.46
2023-05-11T07:56:38.328Z,26.26
2023-05-11T07:57:38.308Z,25.46
2023-05-11T07:58:38.274Z,25.51
2023-05-11T07:59:38.269Z,26.05
2023-05-11T08:00:38.253Z,25.51
2023-05-11T08:01:38.399Z,25.94
2023-05-11T08:02:38.370Z,26.05
2023-05-11T08:03:38.205Z,25.41
2023-05-11T08:04:38.203Z,25.73
2023-05-11T08:05:38.242Z,25.46
2023-05-11T08:06:38.157Z,25.51
2023-05-11T08:07:40.966Z,25.57
2023-05-11T08:08:38.131Z,25.46
2023-05-11T08:09:38.123Z,25.94
2023-05-11T08:10:38.116Z,25.51
2023-05-11T08:11:38.092Z,25.24
2023-05-11T08:12:38.188Z,25.51
2023-05-11T08:13:38.070Z,25.51
2023-05-11T08:14:38.067Z,25.41
2023-05-11T08:15:38.044Z,26.05
2023-05-11T08:16:38.149Z,25.57
2023-05-11T08:17:38.038Z,25.51
2023-05-11T08:18:38.032Z,25.51
2023-05-11T08:19:37.986Z,25.67
2023-05-11T08:20:37.980Z,25.46
2023-05-11T08:21:38.066Z,25.78
2023-05-11T08:22:38.039Z,25.51
2023-05-11T08:23:38.135Z,25.51
2023-05-11T08:24:37.925Z,25.35
2023-05-11T08:25:37.904Z,25.46
2023-05-11T08:26:37.896Z,25.46
2023-05-11T08:27:37.880Z,25.57
2023-05-11T08:28:37.937Z,25.51
2023-05-11T08:29:37.855Z,25.51
2023-05-11T08:30:37.841Z,25.30
2023-05-11T08:31:37.839Z,25.46
2023-05-11T08:32:50.105Z,25.46
2023-05-11T08:33:39.158Z,25.46
2023-05-11T08:34:37.851Z,25.51
2023-05-11T08:35:37.779Z,26.05
2023-05-11T08:36:37.768Z,25.46
2023-05-11T08:37:37.754Z,25.41
2023-05-11T08:38:37.731Z,25.46
2023-05-11T08:39:46.706Z,25.41
2023-05-11T08:40:38.717Z,25.46
2023-05-11T08:41:37.692Z,26.10
2023-05-11T08:42:37.674Z,25.51
2023-05-11T08:43:37.658Z,25.30
2023-05-11T08:44:37.686Z,25.51
2023-05-11T08:45:38.703Z,25.51
2023-05-11T08:46:37.628Z,25.46
2023-05-11T08:47:37.637Z,25.24
2023-05-11T08:48:37.593Z,25.67
2023-05-11T08:49:37.586Z,25.51
2023-05-11T08:50:37.566Z,25.62
2023-05-11T08:51:37.558Z,25.41
2023-05-11T08:52:37.539Z,25.46
2023-05-11T08:53:37.522Z,25.51
2023-05-11T08:54:37.530Z,25.46
2023-05-11T08:55:37.494Z,25.46
2023-05-11T08:56:37.477Z,25.46
2023-05-11T08:57:37.474Z,25.46
2023-05-11T08:58:37.501Z,25.46
2023-05-11T08:59:37.440Z,25.46
2023-05-11T09:00:37.465Z,25.57
2023-05-11T09:01:37.497Z,25.57
2023-05-11T09:02:37.417Z,25.35
2023-05-11T09:03:37.383Z,25.51
2023-05-11T09:04:37.373Z,25.46
2023-05-11T09:05:37.387Z,25.46
2023-05-11T09:06:37.341Z,25.46
2023-05-11T09:07:37.335Z,25.46
2023-05-11T09:08:37.314Z,25.57
2023-05-11T09:09:37.317Z,25.46
2023-05-11T09:10:37.297Z,25.51
2023-05-11T09:11:37.283Z,25.51
2023-05-11T09:12:37.275Z,25.41
2023-05-11T09:13:37.251Z,25.41
2023-05-11T09:14:37.237Z,25.46
2023-05-11T09:15:38.174Z,25.51
2023-05-11T09:16:37.914Z,25.51
2023-05-11T09:17:37.233Z,25.57
2023-05-11T09:18:37.210Z,25.46
2023-05-11T09:19:37.176Z,25.46
2023-05-11T09:20:37.152Z,25.46
2023-05-11T09:21:37.142Z,25.73
2023-05-11T09:22:37.120Z,25.46
2023-05-11T09:23:37.116Z,25.46
2023-05-11T09:24:37.095Z,25.46
2023-05-11T09:25:37.092Z,25.46
2023-05-11T09:26:37.083Z,25.83
2023-05-11T09:27:37.068Z,25.46
2023-05-11T09:28:37.271Z,25.41
2023-05-11T09:29:37.029Z,25.62
2023-05-11T09:30:37.026Z,25.46
2023-05-11T09:31:37.047Z,25.46
2023-05-11T09:32:37.034Z,25.41
2023-05-11T09:33:36.983Z,25.19
2023-05-11T09:35:36.954Z,25.41
2023-05-11T09:36:36.945Z,25.46
2023-05-11T09:37:36.965Z,25.41
2023-05-11T09:38:36.960Z,25.46
2023-05-11T09:39:42.262Z,25.51
2023-05-11T09:40:37.926Z,25.46
2023-05-11T09:41:36.877Z,25.46
2023-05-11T09:42:36.859Z,25.46
2023-05-11T09:43:36.844Z,25.46
2023-05-11T09:44:36.826Z,25.46
2023-05-11T09:45:36.840Z,25.46
2023-05-11T09:46:36.835Z,25.41
2023-05-11T09:47:36.810Z,25.41
2023-05-11T09:48:36.833Z,25.46
2023-05-11T09:49:36.815Z,25.46
2023-05-11T09:50:36.791Z,25.41
2023-05-11T09:51:36.739Z,25.57
2023-05-11T09:52:36.752Z,25.51
2023-05-11T09:53:36.716Z,25.41
2023-05-11T09:54:36.700Z,25.46
2023-05-11T09:55:36.683Z,25.46
2023-05-11T09:56:36.677Z,25.51
2023-05-11T09:57:36.655Z,25.46
2023-05-11T09:58:36.675Z,25.89
2023-05-11T09:59:36.643Z,25.62
2023-05-11T10:00:36.612Z,25.57
2023-05-11T10:01:36.651Z,25.46
2023-05-11T10:02:36.675Z,25.41
2023-05-11T10:03:36.636Z,25.51
2023-05-11T10:04:36.587Z,25.35
2023-05-11T10:05:36.574Z,25.46
2023-05-11T10:06:36.530Z,25.51
2023-05-11T10:07:36.513Z,25.46
2023-05-11T10:08:36.500Z,25.51
2023-05-11T10:09:36.490Z,25.46
2023-05-11T10:10:36.473Z,25.51
2023-05-11T10:11:36.472Z,25.03
2023-05-11T10:12:36.457Z,25.51
2023-05-11T10:13:36.441Z,25.46
2023-05-11T10:14:36.435Z,25.46
2023-05-11T10:15:36.412Z,25.41
2023-05-11T10:16:36.703Z,25.46
2023-05-11T10:17:36.401Z,25.46
2023-05-11T10:18:36.448Z,25.30
2023-05-11T10:19:36.365Z,25.46
2023-05-11T10:20:36.652Z,25.46
2023-05-11T10:21:36.331Z,25.51
2023-05-11T10:22:36.488Z,25.51
2023-05-11T10:23:36.519Z,25.46
2023-05-11T10:24:36.305Z,25.46
2023-05-11T10:25:36.286Z,25.46
2023-05-11T10:26:36.270Z,25.46
2023-05-11T10:27:36.259Z,25.51
2023-05-11T10:28:36.238Z,25.46
2023-05-11T10:29:36.220Z,25.51
2023-05-11T10:30:36.212Z,25.46
2023-05-11T10:31:36.280Z,25.51
2023-05-11T10:32:36.347Z,25.46
2023-05-11T10:33:36.157Z,25.46
2023-05-11T10:34:36.145Z,25.73
2023-05-11T10:35:36.131Z,25.41
2023-05-11T10:36:36.153Z,25.46
2023-05-11T10:37:36.110Z,25.08
2023-05-11T10:38:36.090Z,25.62
2023-05-11T10:39:36.080Z,25.46
2023-05-11T10:40:36.069Z,25.51
2023-05-11T10:41:36.055Z,25.62
2023-05-11T10:42:36.041Z,25.46
2023-05-11T10:43:36.027Z,25.62
2023-05-11T10:44:36.058Z,25.51
2023-05-11T10:45:36.042Z,25.46
2023-05-11T10:46:35.982Z,25.46
2023-05-11T10:47:35.994Z,25.51
2023-05-11T10:48:35.965Z,25.51
2023-05-11T10:49:35.945Z,25.46
2023-05-11T10:50:35.934Z,25.08
2023-05-11T10:51:35.920Z,25.19
2023-05-11T10:52:35.923Z,25.73
2023-05-11T10:53:35.888Z,25.14
2023-05-11T10:54:35.878Z,25.41
2023-05-11T10:55:35.876Z,25.67
2023-05-11T10:56:36.042Z,25.46
2023-05-11T10:57:35.836Z,25.46
2023-05-11T10:58:35.821Z,25.24
2023-05-11T10:59:35.813Z,25.46
2023-05-11T11:00:35.876Z,25.51
2023-05-11T11:01:35.835Z,25.46
2023-05-11T11:02:35.798Z,25.46
2023-05-11T11:03:35.761Z,25.03
2023-05-11T11:04:35.993Z,24.98
2023-05-11T11:05:35.825Z,25.67
2023-05-11T11:06:35.969Z,25.51
2023-05-11T11:07:35.705Z,25.19
2023-05-11T11:08:35.842Z,25.41
2023-05-11T11:09:35.715Z,25.03
2023-05-11T11:10:35.687Z,25.08
2023-05-11T11:11:35.651Z,25.03
2023-05-11T11:12:35.723Z,25.14
2023-05-11T11:13:35.630Z,25.08
2023-05-11T11:14:35.607Z,24.81
2023-05-11T11:15:35.609Z,25.08
2023-05-11T11:16:36.025Z,25.19
2023-05-11T11:17:36.058Z,25.03
2023-05-11T11:18:35.677Z,25.08
2023-05-11T11:19:35.548Z,24.87
2023-05-11T11:20:35.530Z,25.19
2023-05-11T11:21:35.519Z,25.08
2023-05-11T11:22:35.608Z,25.24
2023-05-11T11:23:35.494Z,25.03
2023-05-11T11:24:35.531Z,25.46
2023-05-11T11:25:35.459Z,25.41
2023-05-11T11:26:35.446Z,25.08
2023-05-11T11:27:35.433Z,25.14
2023-05-11T11:28:35.418Z,25.03
2023-05-11T11:29:35.401Z,25.08
2023-05-11T11:30:35.394Z,25.03
2023-05-11T11:31:35.411Z,25.41
2023-05-11T11:32:35.480Z,25.51
2023-05-11T11:33:35.350Z,25.08
2023-05-11T11:34:35.338Z,24.92
2023-05-11T11:35:35.328Z,25.08
2023-05-11T11:36:35.313Z,25.08
2023-05-11T11:37:35.445Z,24.98
2023-05-11T11:38:35.288Z,25.08
2023-05-11T11:39:35.274Z,25.14
2023-05-11T11:40:46.886Z,25.30
2023-05-11T11:41:36.273Z,25.19
2023-05-11T11:42:35.223Z,25.08
2023-05-11T11:43:36.712Z,25.46
2023-05-11T11:44:35.400Z,25.19
2023-05-11T11:45:35.198Z,25.03
2023-05-11T11:46:35.230Z,25.08
2023-05-11T11:47:35.267Z,25.08
2023-05-11T11:48:35.149Z,25.03
2023-05-11T11:49:35.435Z,25.03
2023-05-11T11:50:35.118Z,25.08
2023-05-11T11:51:35.111Z,25.03
2023-05-11T11:52:35.103Z,25.19
2023-05-11T11:53:35.092Z,25.35
2023-05-11T11:54:35.206Z,25.14
2023-05-11T11:55:35.051Z,25.08
2023-05-11T11:56:35.068Z,25.19
2023-05-11T11:57:35.081Z,25.24
2023-05-11T11:58:35.018Z,25.03
2023-05-11T11:59:35.011Z,25.08
2023-05-11T12:00:35.182Z,25.14
2023-05-11T12:01:34.963Z,25.14
2023-05-11T12:02:35.182Z,25.03
2023-05-11T12:03:35.028Z,25.08
2023-05-11T12:04:34.973Z,25.30
2023-05-11T12:05:34.908Z,25.08
2023-05-11T12:06:34.890Z,25.08
2023-05-11T12:07:34.887Z,25.14
2023-05-11T12:08:34.866Z,25.14
2023-05-11T12:09:34.889Z,25.08
2023-05-11T12:10:34.846Z,25.14
2023-05-11T12:11:34.835Z,25.19
2023-05-11T12:12:34.838Z,25.14
2023-05-11T12:13:34.921Z,25.19
2023-05-11T12:14:34.791Z,25.14
2023-05-11T12:15:34.779Z,25.03
2023-05-11T12:16:34.793Z,25.08
2023-05-11T12:17:34.795Z,25.08
2023-05-11T12:18:34.784Z,25.08
2023-05-11T12:19:34.726Z,25.19
2023-05-11T12:20:34.705Z,24.92
2023-05-11T12:21:34.687Z,25.19
2023-05-11T12:22:34.681Z,25.24
2023-05-11T12:23:34.695Z,25.03
2023-05-11T12:24:34.647Z,25.08
2023-05-11T12:25:34.653Z,25.30
2023-05-11T12:26:34.688Z,25.08
2023-05-11T12:27:34.860Z,25.24
2023-05-11T12:28:34.658Z,25.03
2023-05-11T12:29:34.597Z,25.19
2023-05-11T12:30:34.579Z,25.19
2023-05-11T12:31:34.852Z,25.08
2023-05-11T12:32:34.579Z,25.03
2023-05-11T12:33:34.545Z,25.19
2023-05-11T12:34:34.513Z,25.19
2023-05-11T12:35:34.519Z,25.08
2023-05-11T12:36:34.515Z,25.14
2023-05-11T12:37:34.474Z,25.41
2023-05-11T12:38:34.460Z,25.03
2023-05-11T12:39:34.588Z,25.19
2023-05-11T12:40:34.428Z,25.03
2023-05-11T12:41:34.430Z,25.08
2023-05-11T12:42:35.385Z,25.08
2023-05-11T12:43:34.399Z,25.08
2023-05-11T12:44:34.414Z,25.08
2023-05-11T12:45:34.367Z,24.92
2023-05-11T12:46:34.398Z,25.03
2023-05-11T12:47:34.369Z,25.19
2023-05-11T12:48:34.321Z,25.08
2023-05-11T12:49:34.313Z,25.08
2023-05-11T12:50:34.307Z,25.14
2023-05-11T12:51:34.281Z,25.08
2023-05-11T12:52:34.266Z,25.03
2023-05-11T12:53:34.259Z,25.08
2023-05-11T12:54:34.293Z,25.14
2023-05-11T12:55:34.234Z,25.08
2023-05-11T12:56:34.223Z,25.24
2023-05-11T12:57:34.220Z,25.08
2023-05-11T12:58:34.192Z,25.03